FW4135 Weather Reports


Display with metric or nautical units.
time (UTC)temp
F
wind
direction
speed
MPH
gust
MPH
rain 1hr
in
rain 24hr
in
rain mn
in
humidity
%
barometer
mb
20200330231508 41 360 2.0 10.0 0.00 0.09 0.09 89 1014.6
20200330224617 42 360 3.0 12.0 0.00 0.09 0.09 92 1014.2
20200330223102 42 360 2.0 14.0 0.00 0.09 0.09 93 1014.1
20200330221549 42 360 3.0 9.0 0.00 0.09 0.09 93 1014.0
20200330220008 42 360 3.0 9.0 0.00 0.09 0.09 93 1013.7
20200330213118 43 360 5.0 13.0 0.00 0.09 0.09 90 1013.4
20200330211539 44 360 3.0 9.0 0.00 0.09 0.09 90 1013.1
20200330210020 44 360 4.0 11.0 0.00 0.09 0.09 90 1013.0
20200330204505 45 360 4.0 9.0 0.00 0.09 0.09 88 1012.7
20200330203231 44 360 3.0 8.0 0.00 0.09 0.09 90 1012.7
20200330201613 44 360 4.0 9.0 0.02 0.09 0.09 89 1012.6
20200330200026 44 360 2.0 13.0 0.04 0.09 0.09 92 1012.7
20200330194514 43 360 5.0 11.0 0.04 0.09 0.09 92 1012.7
20200330193205 42 360 4.0 13.0 0.04 0.09 0.09 92 1012.7
20200330191611 44 360 5.0 13.0 0.02 0.07 0.07 92 1012.5
20200330190051 45 360 3.0 14.0 0.00 0.05 0.05 87 1012.2
20200330184532 47 360 4.0 9.0 0.00 0.05 0.05 81 1012.1
20200330183002 47 360 5.0 11.0 0.00 0.05 0.05 82 1012.2
20200330181649 47 360 3.0 11.0 0.00 0.05 0.05 84 1012.3
20200330180129 46 360 4.0 11.0 0.00 0.05 0.05 86 1012.3
20200330174648 46 360 3.0 11.0 0.01 0.05 0.05 89 1012.4
20200330173018 44 360 4.0 8.0 0.01 0.05 0.05 91 1012.4
20200330171506 43 360 6.0 14.0 0.01 0.05 0.05 90 1012.3
20200330170227 43 360 8.0 19.0 0.01 0.05 0.05 91 1012.4
20200330164614 43 360 8.0 13.0 0.03 0.04 0.04 91 1012.2
20200330163118 44 360 6.0 15.0 0.03 0.04 0.04 93 1012.2
20200330161533 43 360 6.0 14.0 0.03 0.04 0.04 92 1012.2
20200330160037 44 360 8.0 16.0 0.03 0.04 0.04 91 1012.0
20200330153121 48 360 4.0 12.0 0.00 0.01 0.01 80 1011.4
20200330151606 48 360 5.0 15.0 0.00 0.01 0.01 81 1011.4
20200330150140 47 360 3.0 13.0 0.00 0.01 0.01 85 1011.5
20200330144540 47 360 7.0 16.0 0.00 0.01 0.01 87 1011.4
20200330143153 46 360 7.0 14.0 0.00 0.01 0.01 89 1011.5
20200330141621 45 360 7.0 13.0 0.00 0.01 0.01 89 1011.4
20200330140049 45 360 5.0 11.0 0.00 0.01 0.01 89 1011.5
20200330134548 45 360 8.0 16.0 0.00 0.01 0.01 89 1011.5
20200330133002 45 360 4.0 11.0 0.00 0.01 0.01 91 1011.5
20200330131559 45 360 6.0 14.0 0.00 0.01 0.01 91 1011.7
20200330130205 45 360 5.0 11.0 0.00 0.03 0.01 92 1011.7
20200330124543 45 360 5.0 15.0 0.00 0.03 0.01 94 1011.9
20200330123002 45 360 5.0 16.0 0.00 0.03 0.01 96 1012.0
20200330121653 44 360 8.0 17.0 0.00 0.03 0.01 97 1011.9
20200330120148 43 360 7.0 15.0 0.00 0.04 0.01 98 1012.2
20200330114555 43 360 9.0 14.0 0.00 0.04 0.01 99 1012.1
20200330113117 42 360 5.0 12.0 0.00 0.04 0.01 98 1012.0
20200330111658 42 360 6.0 16.0 0.00 0.04 0.01 98 1012.2
20200330110055 42 360 6.0 10.0 0.01 0.04 0.01 98 1012.5
20200330104551 43 360 4.0 11.0 0.01 0.04 0.01 98 1012.5
20200330103200 43 360 5.0 11.0 0.01 0.04 0.01 98 1012.3
20200330101557 43 360 5.0 10.0 0.01 0.04 0.01 98 1012.2
20200330100106 43 360 3.0 9.0 0.00 0.05 0.00 98 1012.1
20200330094515 43 360 4.0 9.0 0.00 0.05 0.00 98 1012.2
20200330093059 43 360 5.0 12.0 0.00 0.05 0.00 98 1012.1
20200330091710 43 360 4.0 10.0 0.00 0.05 0.00 98 1012.1
20200330090031 43 360 6.0 12.0 0.00 0.05 0.00 98 1012.1
20200330084524 43 360 4.0 10.0 0.00 0.05 0.00 97 1011.8
20200330083314 43 360 5.0 12.0 0.00 0.05 0.00 97 1011.7
20200330081645 43 360 5.0 9.0 0.00 0.05 0.00 97 1011.9
20200330080102 44 360 5.0 10.0 0.00 0.05 0.00 96 1011.7
20200330074730 44 360 3.0 6.0 0.00 0.05 0.00 95 1011.8
20200330073040 44 360 2.0 4.0 0.00 0.05 0.00 95 1011.7
20200330071535 45 360 2.0 4.0 0.00 0.05 0.00 93 1011.6
20200330070030 45 360 1.0 4.0 0.00 0.05 0.00 94 1012.0
20200330064513 44 360 2.0 4.0 0.00 0.05 0.00 96 1012.1
20200330063058 45 360 2.0 6.0 0.00 0.05 0.00 97 1012.1
20200330061559 45 360 3.0 6.0 0.00 0.05 0.00 97 1012.2
20200330060030 45 360 4.0 6.0 0.00 0.05 0.00 97 1012.3
20200330053159 46 360 2.0 3.0 0.00 0.05 0.00 93 1012.8
20200330051642 47 360 0.0 1.0 0.00 0.05 0.00 94 1013.2
20200330050118 46 360 0.0 2.0 0.00 0.06 0.00 97 1013.1
20200330044521 46 360 0.0 3.0 0.00 0.06 0.00 97 1013.2
20200330043115 47 360 0.0 3.0 0.00 0.06 0.00 98 1013.4
20200330041631 47 360 1.0 4.0 0.00 0.06 0.00 98 1013.8
20200330040030 48 360 5.0 11.0 0.00 0.06 0.06 99 1014.5
20200330034517 48 360 4.0 10.0 0.00 0.06 0.06 99 1014.2
20200330033105 48 360 1.0 6.0 0.00 0.06 0.06 99 1013.8
20200330031542 48 360 2.0 6.0 0.00 0.06 0.06 99 1013.6
20200330030057 48 360 3.0 8.0 0.00 0.06 0.06 99 1013.4
20200330024543 48 360 4.0 8.0 0.00 0.06 0.06 99 1012.9
20200330021651 48 360 3.0 8.0 0.00 0.06 0.06 99 1012.4
20200330020146 48 360 5.0 9.0 0.00 0.06 0.06 99 1012.1
20200330014526 48 360 5.0 9.0 0.00 0.06 0.06 99 1011.9
20200330013137 48 360 3.0 5.0 0.00 0.06 0.06 99 1012.1
20200330011657 48 360 1.0 4.0 0.00 0.06 0.06 99 1012.2
20200330010116 48 360 0.0 4.0 0.00 0.07 0.06 99 1011.8
20200330004548 48 360 2.0 6.0 0.00 0.07 0.06 99 1011.5
20200330003119 48 360 3.0 6.0 0.00 0.07 0.06 99 1011.1
20200330001654 48 360 0.0 8.0 0.00 0.07 0.06 99 1011.1
20200330000058 48 360 3.0 11.0 0.00 0.08 0.06 98 1010.4
20200329234543 48 360 5.0 11.0 0.00 0.08 0.06 98 1010.3
20200329233000 48 360 5.0 14.0 0.00 0.08 0.06 98 1009.9